createdAt,value
2023-05-11T00:00:03.429Z,8.00
2023-05-11T00:02:31.204Z,7.25
2023-05-11T00:04:59.035Z,8.25
2023-05-11T00:07:26.812Z,8.00
2023-05-11T00:09:54.410Z,7.00
2023-05-11T00:12:21.770Z,8.00
2023-05-11T00:14:49.748Z,9.75
2023-05-11T00:17:18.972Z,9.00
2023-05-11T00:19:46.632Z,7.50
2023-05-11T00:22:14.123Z,10.50
2023-05-11T00:24:41.474Z,8.75
2023-05-11T00:27:08.799Z,8.00
2023-05-11T00:29:36.212Z,9.00
2023-05-11T00:32:03.573Z,9.75
2023-05-11T00:34:32.109Z,10.00
2023-05-11T00:36:59.512Z,12.00
2023-05-11T00:39:26.895Z,11.00
2023-05-11T00:41:54.283Z,11.00
2023-05-11T00:44:21.768Z,10.75
2023-05-11T00:46:49.443Z,12.00
2023-05-11T00:49:17.593Z,11.50
2023-05-11T00:51:45.044Z,9.25
2023-05-11T00:54:15.606Z,10.00
2023-05-11T00:56:43.136Z,4.25
2023-05-11T00:59:10.608Z,9.00
2023-05-11T01:01:41.324Z,9.00
2023-05-11T01:04:09.341Z,10.00
2023-05-11T01:07:01.236Z,9.25
2023-05-11T01:10:00.162Z,7.50
2023-05-11T01:12:33.457Z,6.25
2023-05-11T01:15:11.127Z,9.25
2023-05-11T01:17:49.292Z,10.50
2023-05-11T01:20:21.686Z,9.00
2023-05-11T01:23:19.759Z,7.25
2023-05-11T01:26:05.169Z,9.75
2023-05-11T01:28:51.368Z,9.00
2023-05-11T01:31:20.877Z,11.00
2023-05-11T01:33:58.634Z,9.75
2023-05-11T01:36:31.631Z,12.50
2023-05-11T01:39:03.028Z,5.00
2023-05-11T01:41:34.152Z,9.75
2023-05-11T01:44:06.419Z,10.75
2023-05-11T01:46:35.141Z,3.75
2023-05-11T01:49:07.593Z,9.50
2023-05-11T01:51:42.178Z,10.00
2023-05-11T01:54:11.533Z,12.00
2023-05-11T01:56:41.606Z,10.25
2023-05-11T01:59:10.894Z,11.75
2023-05-11T02:01:41.141Z,12.25
2023-05-11T02:04:09.906Z,10.75
2023-05-11T02:06:39.584Z,13.75
2023-05-11T02:09:09.545Z,12.00
2023-05-11T02:11:40.478Z,11.50
2023-05-11T02:14:10.322Z,13.75
2023-05-11T02:16:39.148Z,14.00
2023-05-11T02:19:08.068Z,13.25
2023-05-11T02:21:38.188Z,14.25
2023-05-11T02:24:06.961Z,16.25
2023-05-11T02:26:34.700Z,12.50
2023-05-11T02:29:02.268Z,10.50
2023-05-11T02:31:32.686Z,17.00
2023-05-11T02:34:07.991Z,12.00
2023-05-11T02:36:39.071Z,14.00
2023-05-11T02:39:09.662Z,11.50
2023-05-11T02:41:43.524Z,14.50
2023-05-11T02:44:15.972Z,12.50
2023-05-11T02:46:47.880Z,13.50
2023-05-11T02:49:18.628Z,12.50
2023-05-11T02:51:48.754Z,14.75
2023-05-11T02:54:17.596Z,12.00
2023-05-11T02:56:45.738Z,12.50
2023-05-11T02:59:14.492Z,9.00
2023-05-11T03:01:42.227Z,15.00
2023-05-11T03:04:11.656Z,12.25
2023-05-11T03:06:40.184Z,15.25
2023-05-11T03:09:09.944Z,12.25
2023-05-11T03:11:38.067Z,14.75
2023-05-11T03:14:05.780Z,15.00
2023-05-11T03:16:35.210Z,13.25
2023-05-11T03:19:05.807Z,14.25
2023-05-11T03:21:36.594Z,12.25
2023-05-11T03:24:06.787Z,11.25
2023-05-11T03:26:36.308Z,11.00
2023-05-11T03:29:04.507Z,12.75
2023-05-11T03:31:32.785Z,14.50
2023-05-11T03:34:00.431Z,11.50
2023-05-11T03:36:28.967Z,13.25
2023-05-11T03:38:58.792Z,14.00
2023-05-11T03:41:29.040Z,14.25
2023-05-11T03:44:00.096Z,13.25
2023-05-11T03:46:30.033Z,15.75
2023-05-11T03:48:58.174Z,13.25
2023-05-11T03:51:26.176Z,16.00
2023-05-11T03:53:53.937Z,22.25
2023-05-11T03:56:21.654Z,13.75
2023-05-11T03:58:49.828Z,11.25
2023-05-11T04:01:17.413Z,16.25
2023-05-11T04:03:53.219Z,15.00
2023-05-11T04:06:21.017Z,9.25
2023-05-11T04:08:48.782Z,14.50
2023-05-11T04:11:16.909Z,14.00
2023-05-11T04:13:44.286Z,13.50
2023-05-11T04:16:11.708Z,14.25
2023-05-11T04:18:39.171Z,11.50
2023-05-11T04:21:06.538Z,16.00
2023-05-11T04:23:33.947Z,16.25
2023-05-11T04:26:01.364Z,14.75
2023-05-11T04:28:29.668Z,16.75
2023-05-11T04:30:57.827Z,15.50
2023-05-11T04:33:25.594Z,14.50
2023-05-11T04:35:54.711Z,18.50
2023-05-11T04:38:22.950Z,18.25
2023-05-11T04:40:50.902Z,17.50
2023-05-11T04:43:19.099Z,15.00
2023-05-11T04:45:52.707Z,14.25
2023-05-11T04:48:21.061Z,17.50
2023-05-11T04:50:48.587Z,20.00
2023-05-11T04:53:17.511Z,13.00
2023-05-11T04:55:44.863Z,21.00
2023-05-11T04:58:12.307Z,9.25
2023-05-11T05:00:39.719Z,19.25
2023-05-11T05:03:07.718Z,21.50
2023-05-11T05:05:35.890Z,17.75
2023-05-11T05:08:03.459Z,14.00
2023-05-11T05:10:30.922Z,21.00
2023-05-11T05:12:58.367Z,19.75
2023-05-11T05:15:26.592Z,21.00
2023-05-11T05:17:54.064Z,18.25
2023-05-11T05:20:21.513Z,21.00
2023-05-11T05:22:48.855Z,18.25
2023-05-11T05:25:16.968Z,23.50
2023-05-11T05:27:44.672Z,18.25
2023-05-11T05:30:12.611Z,20.00
2023-05-11T05:32:40.111Z,16.00
2023-05-11T05:35:08.082Z,19.00
2023-05-11T05:37:37.605Z,18.00
2023-05-11T05:40:05.853Z,19.00
2023-05-11T05:42:33.683Z,17.50
2023-05-11T05:45:01.157Z,20.00
2023-05-11T05:47:28.807Z,17.00
2023-05-11T05:49:56.407Z,18.33
2023-05-11T05:52:24.019Z,12.00
2023-05-11T05:54:51.592Z,14.33
2023-05-11T05:57:18.953Z,11.00
2023-05-11T05:59:46.298Z,11.00
2023-05-11T06:02:13.866Z,11.00
2023-05-11T06:04:42.436Z,9.00
2023-05-11T06:07:10.052Z,8.00
2023-05-11T06:09:39.137Z,7.00
2023-05-11T06:12:10.222Z,4.75
2023-05-11T06:14:38.136Z,4.50
2023-05-11T06:17:05.569Z,4.50
2023-05-11T06:19:33.666Z,4.00
2023-05-11T06:22:01.284Z,3.00
2023-05-11T06:24:29.199Z,3.00
2023-05-11T06:26:56.625Z,2.25
2023-05-11T06:29:24.004Z,3.00
2023-05-11T06:31:52.993Z,5.00
2023-05-11T06:34:20.845Z,2.25
2023-05-11T06:36:49.093Z,4.50
2023-05-11T06:39:16.695Z,2.50
2023-05-11T06:41:44.653Z,3.75
2023-05-11T06:44:13.206Z,4.00
2023-05-11T06:46:40.591Z,11.25
2023-05-11T06:49:08.994Z,2.00
2023-05-11T06:51:37.071Z,5.00
2023-05-11T06:54:04.656Z,3.75
2023-05-11T06:56:34.167Z,0.00
2023-05-11T06:59:01.553Z,3.50
2023-05-11T07:01:29.599Z,4.00
2023-05-11T07:03:57.033Z,5.25
2023-05-11T07:06:24.501Z,5.00
2023-05-11T07:08:51.900Z,6.50
2023-05-11T07:11:19.263Z,3.00
2023-05-11T07:13:46.852Z,2.00
2023-05-11T07:16:14.279Z,1.00
2023-05-11T07:18:41.683Z,4.00
2023-05-11T07:21:09.158Z,3.50
2023-05-11T07:23:36.659Z,3.75
2023-05-11T07:26:09.052Z,3.50
2023-05-11T07:28:37.244Z,3.00
2023-05-11T07:31:05.670Z,3.00
2023-05-11T07:33:34.801Z,2.00
2023-05-11T07:36:02.238Z,3.00
2023-05-11T07:38:29.764Z,4.25
2023-05-11T07:40:57.279Z,4.00
2023-05-11T07:43:25.110Z,2.75
2023-05-11T07:45:52.713Z,3.00
2023-05-11T07:48:20.963Z,2.00
2023-05-11T07:50:49.745Z,5.75
2023-05-11T07:53:17.415Z,4.50
2023-05-11T07:55:44.826Z,2.00
2023-05-11T07:58:12.297Z,2.25
2023-05-11T08:00:39.643Z,3.00
2023-05-11T08:03:07.525Z,1.00
2023-05-11T08:05:37.867Z,1.60
2023-05-11T08:08:05.693Z,2.20
2023-05-11T08:10:33.352Z,3.80
2023-05-11T08:13:00.707Z,2.80
2023-05-11T08:15:28.258Z,1.75
2023-05-11T08:17:55.773Z,2.25
2023-05-11T08:20:23.481Z,3.00
2023-05-11T08:22:50.968Z,3.20
2023-05-11T08:25:18.716Z,4.20
2023-05-11T08:27:46.368Z,3.00
2023-05-11T08:30:14.232Z,4.00
2023-05-11T08:35:13.444Z,2.00
2023-05-11T08:37:40.930Z,3.00
2023-05-11T08:40:13.900Z,3.00
2023-05-11T08:42:47.268Z,3.00
2023-05-11T08:45:16.887Z,2.00
2023-05-11T08:47:46.134Z,2.60
2023-05-11T08:50:13.696Z,2.40
2023-05-11T08:52:42.066Z,2.20
2023-05-11T08:55:10.143Z,2.20
2023-05-11T08:57:38.785Z,1.00
2023-05-11T09:00:07.626Z,4.00
2023-05-11T09:02:36.009Z,4.00
2023-05-11T09:05:04.538Z,7.40
2023-05-11T09:07:36.706Z,2.40
2023-05-11T09:10:04.494Z,1.00
2023-05-11T09:12:32.373Z,1.00
2023-05-11T09:15:02.564Z,3.00
2023-05-11T09:17:30.803Z,1.00
2023-05-11T09:20:02.362Z,2.00
2023-05-11T09:22:36.138Z,1.20
2023-05-11T09:25:04.220Z,2.00
2023-05-11T09:27:32.517Z,2.20
2023-05-11T09:30:14.338Z,3.20
2023-05-11T09:33:02.801Z,3.00
2023-05-11T09:35:32.735Z,3.00
2023-05-11T09:38:08.751Z,2.00
2023-05-11T09:40:50.482Z,2.80
2023-05-11T09:43:21.590Z,4.20
2023-05-11T09:45:51.681Z,3.60
2023-05-11T09:48:22.203Z,3.00
2023-05-11T09:50:51.151Z,4.20
2023-05-11T09:53:18.946Z,3.80
2023-05-11T09:55:54.056Z,3.20
2023-05-11T09:58:22.175Z,4.00
2023-05-11T10:00:53.944Z,4.00
2023-05-11T10:03:21.863Z,4.40
2023-05-11T10:06:00.948Z,5.40
2023-05-11T10:08:35.927Z,3.00
2023-05-11T10:11:04.496Z,3.60
2023-05-11T10:13:32.972Z,4.00
2023-05-11T10:16:04.558Z,1.40
2023-05-11T10:18:32.547Z,3.20
2023-05-11T10:21:00.602Z,4.00
2023-05-11T10:23:28.825Z,3.00
2023-05-11T10:25:58.039Z,3.80
2023-05-11T10:28:25.577Z,3.20
2023-05-11T10:30:53.727Z,3.00
2023-05-11T10:33:21.662Z,4.00
2023-05-11T10:35:52.064Z,5.40
2023-05-11T10:38:22.704Z,3.60
2023-05-11T10:40:54.281Z,3.00
2023-05-11T10:43:44.257Z,1.40
2023-05-11T10:46:47.690Z,3.00
2023-05-11T10:49:53.096Z,6.40
2023-05-11T10:52:43.990Z,3.00
2023-05-11T10:55:17.618Z,2.20
2023-05-11T10:57:48.101Z,3.80
2023-05-11T11:00:56.069Z,4.00
2023-05-11T11:03:23.887Z,3.00
2023-05-11T11:05:51.530Z,2.80
2023-05-11T11:08:19.088Z,2.60
2023-05-11T11:10:46.654Z,2.20
2023-05-11T11:13:15.894Z,2.80
2023-05-11T11:16:00.488Z,1.60
2023-05-11T11:18:30.450Z,1.20
2023-05-11T11:20:59.394Z,2.00
2023-05-11T11:23:44.168Z,2.20
2023-05-11T11:26:15.668Z,3.00
2023-05-11T11:28:56.432Z,2.00
2023-05-11T11:31:37.176Z,3.00
2023-05-11T11:34:40.346Z,2.50
2023-05-11T11:37:08.970Z,1.00
2023-05-11T11:39:42.220Z,2.00
2023-05-11T11:42:12.069Z,2.00
2023-05-11T11:44:40.769Z,3.00
2023-05-11T11:47:22.084Z,3.00
2023-05-11T11:49:55.930Z,2.00
2023-05-11T11:52:29.313Z,3.40
2023-05-11T11:55:02.604Z,3.00
2023-05-11T11:57:30.348Z,1.00
2023-05-11T11:59:59.053Z,2.60
2023-05-11T12:02:27.815Z,1.80
2023-05-11T12:04:58.459Z,2.00
2023-05-11T12:07:26.964Z,4.00
2023-05-11T12:09:54.661Z,2.80
2023-05-11T12:12:22.116Z,1.00
2023-05-11T12:14:49.586Z,2.00
2023-05-11T12:17:25.602Z,4.20
2023-05-11T12:19:53.045Z,7.00
2023-05-11T12:22:25.211Z,2.20
2023-05-11T12:24:58.203Z,3.60
2023-05-11T12:27:27.328Z,2.00
2023-05-11T12:29:54.693Z,2.00
2023-05-11T12:32:30.008Z,2.80
2023-05-11T12:34:59.573Z,3.00
2023-05-11T12:37:27.165Z,3.20
2023-05-11T12:39:56.092Z,2.00
2023-05-11T12:42:23.855Z,1.20
2023-05-11T12:44:52.409Z,2.00
2023-05-11T12:47:20.083Z,5.00
2023-05-11T12:49:47.563Z,2.40
2023-05-11T12:52:14.964Z,2.80
2023-05-11T12:54:51.660Z,2.00
2023-05-11T12:57:29.919Z,2.00
2023-05-11T13:00:13.308Z,2.40
2023-05-11T13:02:52.525Z,2.40
2023-05-11T13:05:25.118Z,1.00
2023-05-11T13:07:59.767Z,2.00
2023-05-11T13:10:27.489Z,3.00
2023-05-11T13:12:56.310Z,4.00
2023-05-11T13:15:25.249Z,4.00
2023-05-11T13:18:03.557Z,2.75
2023-05-11T13:20:33.851Z,2.00
2023-05-11T13:23:06.114Z,2.00
2023-05-11T13:25:35.036Z,1.50
2023-05-11T13:28:02.488Z,2.25
2023-05-11T13:30:30.858Z,2.00
2023-05-11T13:32:59.827Z,3.00
2023-05-11T13:35:27.240Z,2.25
2023-05-11T13:37:54.613Z,3.50
2023-05-11T13:40:22.057Z,5.75
2023-05-11T13:42:49.586Z,2.25
2023-05-11T13:45:17.212Z,2.00
2023-05-11T13:47:45.763Z,3.75
2023-05-11T13:50:13.780Z,3.00
2023-05-11T13:52:41.764Z,3.75
2023-05-11T13:55:09.437Z,5.75
2023-05-11T13:57:37.320Z,3.00
2023-05-11T14:00:05.845Z,2.20
2023-05-11T14:02:33.685Z,3.00
2023-05-11T14:05:01.116Z,2.00
2023-05-11T14:07:39.402Z,1.40
2023-05-11T14:10:13.935Z,2.80
2023-05-11T14:12:41.590Z,3.60
2023-05-11T14:15:09.561Z,3.40
2023-05-11T14:17:37.571Z,3.00
2023-05-11T14:20:06.232Z,2.00
2023-05-11T14:22:33.951Z,3.60
2023-05-11T14:25:02.015Z,3.20
2023-05-11T14:27:29.982Z,3.80
2023-05-11T14:29:57.365Z,4.40
2023-05-11T14:32:25.052Z,2.75
2023-05-11T14:34:52.478Z,2.25
2023-05-11T14:37:19.805Z,1.50
2023-05-11T14:39:47.138Z,3.00
2023-05-11T14:42:15.155Z,3.25
2023-05-11T14:44:42.589Z,2.75
2023-05-11T14:47:09.908Z,3.75
2023-05-11T14:49:37.580Z,3.50
2023-05-11T14:52:05.204Z,3.25
2023-05-11T14:54:32.555Z,2.75
2023-05-11T14:57:00.036Z,4.00
2023-05-11T14:59:28.143Z,5.00
2023-05-11T15:01:55.575Z,7.75
2023-05-11T15:04:22.944Z,4.25
2023-05-11T15:06:50.536Z,2.75
2023-05-11T15:09:20.190Z,3.00
2023-05-11T15:11:47.677Z,4.25
2023-05-11T15:14:15.180Z,2.75
2023-05-11T15:16:42.670Z,3.25
2023-05-11T15:19:10.194Z,3.75
2023-05-11T15:21:37.897Z,3.67
2023-05-11T15:24:06.249Z,6.33
2023-05-11T15:26:34.594Z,4.75
2023-05-11T15:29:02.170Z,6.50
2023-05-11T15:31:30.146Z,4.75
2023-05-11T15:33:57.800Z,1.25
2023-05-11T15:36:26.420Z,3.00
2023-05-11T15:38:55.456Z,3.75
2023-05-11T15:41:22.863Z,4.25
2023-05-11T15:43:52.624Z,4.00
2023-05-11T15:46:20.217Z,4.25
2023-05-11T15:48:47.620Z,4.00
2023-05-11T15:51:15.004Z,5.25
2023-05-11T15:53:42.502Z,4.75
2023-05-11T15:56:10.190Z,3.50
2023-05-11T15:58:37.809Z,2.50
2023-05-11T16:01:06.078Z,3.00
2023-05-11T16:03:34.706Z,2.50
2023-05-11T16:06:02.352Z,1.75
2023-05-11T16:08:29.852Z,2.25
2023-05-11T16:10:57.349Z,4.25
2023-05-11T16:13:24.772Z,3.75
2023-05-11T16:15:52.476Z,5.75
2023-05-11T16:18:20.294Z,2.75
2023-05-11T16:20:47.809Z,4.50
2023-05-11T16:23:15.183Z,5.00
2023-05-11T16:25:42.814Z,4.25
2023-05-11T16:28:10.381Z,4.75
2023-05-11T16:30:37.952Z,5.00
2023-05-11T16:33:05.388Z,3.75
2023-05-11T16:35:34.151Z,5.50
2023-05-11T16:38:02.618Z,4.00
2023-05-11T16:40:30.130Z,5.00
2023-05-11T16:42:58.101Z,6.75
2023-05-11T16:45:25.534Z,22.25
2023-05-11T16:47:52.994Z,16.00
2023-05-11T16:50:20.730Z,9.75
2023-05-11T16:52:48.856Z,7.50
2023-05-11T16:55:16.805Z,7.00
2023-05-11T16:57:44.643Z,6.00
2023-05-11T17:00:13.453Z,6.50
2023-05-11T17:02:41.523Z,6.50
2023-05-11T17:05:11.578Z,7.75
2023-05-11T17:07:39.269Z,6.75
2023-05-11T17:10:07.381Z,7.75
2023-05-11T17:12:35.841Z,7.00
2023-05-11T17:15:03.740Z,7.00
2023-05-11T17:17:31.820Z,7.25
2023-05-11T17:19:59.565Z,9.00
2023-05-11T17:22:28.634Z,7.00
2023-05-11T17:24:56.011Z,7.25
2023-05-11T17:27:23.380Z,10.75
2023-05-11T17:29:50.789Z,9.75
2023-05-11T17:32:19.317Z,10.75
2023-05-11T17:34:46.870Z,5.75
2023-05-11T17:37:30.533Z,8.50
2023-05-11T17:40:01.184Z,9.25
2023-05-11T17:42:28.840Z,10.75
2023-05-11T17:44:56.361Z,11.25
2023-05-11T17:47:24.258Z,13.33
2023-05-11T17:49:51.625Z,9.00
2023-05-11T17:52:19.244Z,10.33
2023-05-11T17:54:46.671Z,13.00
2023-05-11T17:57:14.419Z,11.00
2023-05-11T17:59:42.287Z,12.00
2023-05-11T18:02:09.650Z,9.33
2023-05-11T18:04:37.337Z,11.00
2023-05-11T18:07:04.910Z,13.33
2023-05-11T18:09:32.316Z,11.00
2023-05-11T18:11:59.732Z,10.67
2023-05-11T18:14:27.912Z,11.33
2023-05-11T18:16:56.283Z,14.00
2023-05-11T18:19:23.626Z,11.00
2023-05-11T18:21:52.016Z,12.67
2023-05-11T18:24:20.081Z,12.33
2023-05-11T18:26:47.670Z,13.33
2023-05-11T18:29:19.249Z,14.33
2023-05-11T18:31:47.269Z,14.33
2023-05-11T18:34:14.761Z,13.67
2023-05-11T18:36:42.263Z,15.00
2023-05-11T18:39:09.826Z,12.67
2023-05-11T18:41:37.381Z,14.00
2023-05-11T18:44:05.090Z,16.50
2023-05-11T18:46:32.757Z,13.75
2023-05-11T18:49:00.321Z,12.33
2023-05-11T18:51:27.775Z,14.00
2023-05-11T18:53:55.251Z,13.75
2023-05-11T18:56:22.868Z,13.00
2023-05-11T18:58:50.561Z,15.00
2023-05-11T19:01:19.012Z,14.50
2023-05-11T19:03:47.227Z,11.00
2023-05-11T19:06:14.748Z,14.00
2023-05-11T19:08:42.465Z,12.75
2023-05-11T19:11:10.756Z,17.25
2023-05-11T19:13:38.370Z,14.25
2023-05-11T19:16:06.118Z,15.00
2023-05-11T19:18:35.673Z,10.75
2023-05-11T19:21:05.456Z,12.50
2023-05-11T19:23:33.939Z,13.50
2023-05-11T19:26:01.548Z,12.50
2023-05-11T19:28:29.297Z,13.75
2023-05-11T19:31:04.772Z,9.75
2023-05-11T19:33:33.160Z,10.25
2023-05-11T19:36:01.121Z,15.50
2023-05-11T19:38:28.945Z,14.50
2023-05-11T19:40:56.475Z,15.75
2023-05-11T19:43:24.565Z,12.00
2023-05-11T19:45:52.201Z,11.25
2023-05-11T19:48:19.769Z,12.50
2023-05-11T19:50:47.358Z,11.50
2023-05-11T19:53:15.176Z,11.75
2023-05-11T19:55:42.819Z,10.25
2023-05-11T19:58:10.428Z,10.25
2023-05-11T20:00:41.099Z,10.25
2023-05-11T20:03:09.097Z,12.25
2023-05-11T20:05:37.312Z,10.75
2023-05-11T20:08:07.926Z,12.00
2023-05-11T20:10:36.046Z,10.50
2023-05-11T20:13:05.636Z,12.33
2023-05-11T20:15:34.245Z,13.25
2023-05-11T20:18:05.365Z,14.75
2023-05-11T20:20:33.467Z,12.00
2023-05-11T20:23:02.480Z,10.50
2023-05-11T20:25:29.930Z,12.00
2023-05-11T20:27:57.372Z,12.00
2023-05-11T20:30:27.955Z,15.00
2023-05-11T20:35:25.670Z,14.00
2023-05-11T20:37:53.088Z,12.00
2023-05-11T20:40:21.559Z,15.50
2023-05-11T20:42:49.047Z,17.25
2023-05-11T20:45:16.440Z,14.75
2023-05-11T20:47:44.079Z,14.75
2023-05-11T20:50:12.231Z,14.75
2023-05-11T20:52:39.774Z,16.50
2023-05-11T20:55:07.710Z,19.75
2023-05-11T20:57:35.786Z,17.25
2023-05-11T21:00:04.173Z,15.75
2023-05-11T21:02:32.811Z,18.50
2023-05-11T21:05:02.541Z,19.00
2023-05-11T21:07:30.399Z,19.00
2023-05-11T21:09:57.754Z,16.25
2023-05-11T21:12:25.244Z,19.25
2023-05-11T21:14:53.925Z,17.25
2023-05-11T21:17:22.433Z,18.00
2023-05-11T21:19:49.942Z,20.75
2023-05-11T21:22:17.255Z,17.75
2023-05-11T21:24:44.694Z,18.00
2023-05-11T21:27:12.441Z,10.75
2023-05-11T21:29:39.807Z,14.75
2023-05-11T21:32:07.605Z,14.75
2023-05-11T21:34:35.211Z,14.25
2023-05-11T21:37:03.558Z,14.25
2023-05-11T21:39:31.545Z,14.75
2023-05-11T21:41:59.202Z,11.75
2023-05-11T21:44:26.947Z,10.50
2023-05-11T21:46:54.449Z,12.25
2023-05-11T21:49:21.906Z,13.50
2023-05-11T21:51:49.477Z,12.25
2023-05-11T21:54:16.882Z,11.50
2023-05-11T21:56:44.353Z,5.50
2023-05-11T21:59:11.748Z,11.00
2023-05-11T22:01:39.158Z,11.50
2023-05-11T22:04:06.694Z,10.50
2023-05-11T22:06:35.283Z,10.75
2023-05-11T22:09:02.685Z,11.00
2023-05-11T22:11:30.269Z,12.75
2023-05-11T22:13:57.791Z,11.00
2023-05-11T22:16:25.176Z,11.50
2023-05-11T22:18:52.830Z,10.00
2023-05-11T22:21:20.245Z,10.75
2023-05-11T22:23:47.601Z,10.00
2023-05-11T22:26:15.026Z,12.50
2023-05-11T22:28:42.446Z,11.00
2023-05-11T22:31:09.815Z,11.75
2023-05-11T22:33:37.250Z,10.00
2023-05-11T22:36:04.884Z,11.25
2023-05-11T22:38:34.320Z,8.50
2023-05-11T22:41:01.797Z,9.75
2023-05-11T22:43:29.407Z,10.00
2023-05-11T22:45:56.754Z,10.50
2023-05-11T22:48:24.140Z,10.00
2023-05-11T22:50:51.567Z,7.50
2023-05-11T22:53:20.002Z,11.00
2023-05-11T22:55:47.836Z,7.25
2023-05-11T22:58:15.475Z,9.25
2023-05-11T23:00:43.111Z,9.25
2023-05-11T23:03:10.634Z,8.75
2023-05-11T23:05:38.048Z,10.25
2023-05-11T23:08:05.465Z,8.00
2023-05-11T23:10:33.217Z,11.00
2023-05-11T23:13:00.549Z,9.25
2023-05-11T23:15:27.892Z,9.25
2023-05-11T23:17:55.280Z,7.75
2023-05-11T23:20:22.991Z,9.50
2023-05-11T23:22:50.317Z,10.25
2023-05-11T23:25:17.762Z,8.50
2023-05-11T23:27:45.113Z,8.75
2023-05-11T23:30:12.907Z,8.00
2023-05-11T23:32:40.415Z,9.00
2023-05-11T23:35:08.293Z,8.50
2023-05-11T23:37:35.788Z,7.75
2023-05-11T23:40:04.226Z,9.00
2023-05-11T23:42:32.199Z,9.50
2023-05-11T23:45:04.314Z,8.00
2023-05-11T23:47:31.941Z,10.75
2023-05-11T23:49:59.718Z,11.00
2023-05-11T23:52:27.113Z,8.00
2023-05-11T23:54:54.423Z,6.50
2023-05-11T23:57:21.773Z,8.25
2023-05-11T23:59:49.097Z,8.00
